createdAt,value
2017-11-13T00:02:07.279Z,10.00
2017-11-13T00:04:34.042Z,9.43
2017-11-13T00:07:00.509Z,8.95
2017-11-13T00:09:27.058Z,8.90
2017-11-13T00:11:53.615Z,8.02
2017-11-13T00:14:20.173Z,8.77
2017-11-13T00:16:46.833Z,7.45
2017-11-13T00:19:13.314Z,6.50
2017-11-13T00:21:39.745Z,6.25
2017-11-13T00:24:06.196Z,7.12
2017-11-13T00:26:33.476Z,7.80
2017-11-13T00:28:59.935Z,7.85
2017-11-13T00:31:26.493Z,8.63
2017-11-13T00:33:52.954Z,6.60
2017-11-13T00:36:19.432Z,5.82
2017-11-13T00:38:46.067Z,5.70
2017-11-13T00:41:12.523Z,5.00
2017-11-13T00:43:38.969Z,5.10
2017-11-13T00:48:45.798Z,5.70
2017-11-13T00:51:12.355Z,5.68
2017-11-13T00:53:39.542Z,6.47
2017-11-13T00:56:06.675Z,7.87
2017-11-13T00:58:33.262Z,7.43
2017-11-13T01:00:59.736Z,7.87
2017-11-13T01:03:26.273Z,9.40
2017-11-13T01:05:52.767Z,9.05
2017-11-13T01:08:19.225Z,10.00
2017-11-13T01:10:46.565Z,14.98
2017-11-13T01:13:13.021Z,19.45
2017-11-13T01:15:39.576Z,29.20
2017-11-13T01:18:06.237Z,17.25
2017-11-13T01:20:32.720Z,20.08
2017-11-13T01:22:59.252Z,15.70
2017-11-13T01:25:25.710Z,12.37
2017-11-13T01:27:52.145Z,10.10
2017-11-13T01:30:18.650Z,9.43
2017-11-13T01:32:45.180Z,10.32
2017-11-13T01:35:11.738Z,9.70
2017-11-13T01:37:38.267Z,13.67
2017-11-13T01:40:04.854Z,16.65
2017-11-13T01:42:31.414Z,10.55
2017-11-13T01:44:57.917Z,14.70
2017-11-13T01:47:24.377Z,13.35
2017-11-13T01:49:50.868Z,37.77
2017-11-13T01:52:18.156Z,20.27
2017-11-13T01:54:44.717Z,65.27
2017-11-13T01:57:11.253Z,67.90
2017-11-13T01:59:37.837Z,72.47
2017-11-13T02:02:04.290Z,32.03
2017-11-13T02:04:31.410Z,61.92
2017-11-13T02:06:58.021Z,54.97
2017-11-13T02:09:24.742Z,86.43
2017-11-13T02:11:51.213Z,71.10
2017-11-13T02:14:18.514Z,74.28
2017-11-13T02:16:45.071Z,44.90
2017-11-13T02:19:11.540Z,30.23
2017-11-13T02:21:38.088Z,25.80
2017-11-13T02:24:04.664Z,15.03
2017-11-13T02:26:31.256Z,12.90
2017-11-13T02:28:57.869Z,9.95
2017-11-13T02:31:24.528Z,7.55
2017-11-13T02:33:51.083Z,11.82
2017-11-13T02:36:18.327Z,7.45
2017-11-13T02:38:44.882Z,7.43
2017-11-13T02:41:11.435Z,8.10
2017-11-13T02:43:38.038Z,12.45
2017-11-13T02:46:04.693Z,19.48
2017-11-13T02:48:31.193Z,59.85
2017-11-13T02:50:57.757Z,25.08
2017-11-13T02:53:24.481Z,31.00
2017-11-13T02:55:51.088Z,81.15
2017-11-13T02:58:17.690Z,22.23
2017-11-13T03:00:44.965Z,65.35
2017-11-13T03:03:11.524Z,22.33
2017-11-13T03:05:38.086Z,48.47
2017-11-13T03:08:05.139Z,19.83
2017-11-13T03:10:32.528Z,9.85
2017-11-13T03:12:59.086Z,8.90
2017-11-13T03:15:25.582Z,6.70
2017-11-13T03:17:52.063Z,5.50
2017-11-13T03:20:18.661Z,4.68
2017-11-13T03:22:45.172Z,3.75
2017-11-13T03:25:11.780Z,3.20
2017-11-13T03:27:38.251Z,4.03
2017-11-13T03:30:04.795Z,4.28
2017-11-13T03:32:31.281Z,4.68
2017-11-13T03:34:57.730Z,6.22
2017-11-13T03:37:24.261Z,5.60
2017-11-13T03:39:50.725Z,5.00
2017-11-13T03:42:17.179Z,5.85
2017-11-13T03:44:43.630Z,6.55
2017-11-13T03:47:10.068Z,34.15
2017-11-13T03:49:37.228Z,27.13
2017-11-13T03:52:03.652Z,24.00
2017-11-13T03:54:30.170Z,43.25
2017-11-13T03:56:56.630Z,19.95
2017-11-13T03:59:23.100Z,40.47
2017-11-13T04:01:49.550Z,111.00
2017-11-13T04:04:16.102Z,105.93
2017-11-13T04:06:42.541Z,159.80
2017-11-13T04:09:09.739Z,70.82
2017-11-13T04:11:36.287Z,31.33
2017-11-13T04:14:02.946Z,51.20
2017-11-13T04:16:29.463Z,37.40
2017-11-13T04:18:55.921Z,84.90
2017-11-13T04:21:22.519Z,63.22
2017-11-13T04:23:49.221Z,34.33
2017-11-13T04:26:15.737Z,58.97
2017-11-13T04:28:42.220Z,33.33
2017-11-13T04:31:08.752Z,51.47
2017-11-13T04:33:35.313Z,32.63
2017-11-13T04:36:01.868Z,37.50
2017-11-13T04:38:28.431Z,19.47
2017-11-13T04:40:54.990Z,25.17
2017-11-13T04:43:21.544Z,16.95
2017-11-13T04:45:48.026Z,20.23
2017-11-13T04:48:14.501Z,16.92
2017-11-13T04:50:41.014Z,20.23
2017-11-13T04:53:08.262Z,20.00
2017-11-13T04:55:34.729Z,25.05
2017-11-13T04:58:01.948Z,27.58
2017-11-13T05:00:28.475Z,21.50
2017-11-13T05:02:56.220Z,19.05
2017-11-13T05:05:22.821Z,27.20
2017-11-13T05:07:49.361Z,18.53
2017-11-13T05:10:16.672Z,18.80
2017-11-13T05:12:43.621Z,26.23
2017-11-13T05:15:10.153Z,13.05
2017-11-13T05:17:37.401Z,9.93
2017-11-13T05:20:04.732Z,9.80
2017-11-13T05:22:31.279Z,13.20
2017-11-13T05:24:58.049Z,13.95
2017-11-13T05:27:24.710Z,8.25
2017-11-13T05:29:52.153Z,7.12
2017-11-13T05:32:18.723Z,8.15
2017-11-13T05:34:46.013Z,7.25
2017-11-13T05:37:13.548Z,7.03
2017-11-13T05:39:40.174Z,7.80
2017-11-13T05:42:07.618Z,6.82
2017-11-13T05:44:35.684Z,7.97
2017-11-13T05:47:02.188Z,6.50
2017-11-13T05:49:28.930Z,6.87
2017-11-13T05:51:55.612Z,7.35
2017-11-13T05:54:22.956Z,5.87
2017-11-13T05:56:50.263Z,6.85
2017-11-13T05:59:17.027Z,8.10
2017-11-13T06:01:43.569Z,11.38
2017-11-13T06:04:10.143Z,9.13
2017-11-13T06:06:36.953Z,16.02
2017-11-13T06:09:04.105Z,13.90
2017-11-13T06:11:31.059Z,11.12
2017-11-13T06:13:58.059Z,8.70
2017-11-13T06:16:24.589Z,11.85
2017-11-13T06:18:51.233Z,8.00
2017-11-13T06:21:17.903Z,6.40
2017-11-13T06:23:45.266Z,5.00
2017-11-13T06:26:12.431Z,6.35
2017-11-13T06:28:39.001Z,21.62
2017-11-13T06:31:05.714Z,13.25
2017-11-13T06:33:33.216Z,17.17
2017-11-13T06:36:00.412Z,12.00
2017-11-13T06:38:26.971Z,20.10
2017-11-13T06:40:53.634Z,39.97
2017-11-13T06:43:20.085Z,46.40
2017-11-13T06:45:46.650Z,22.77
2017-11-13T06:48:13.461Z,40.55
2017-11-13T06:50:41.919Z,32.40
2017-11-13T06:53:08.422Z,19.58
2017-11-13T06:55:35.044Z,17.77
2017-11-13T06:58:01.815Z,15.10
2017-11-13T07:00:28.555Z,14.48
2017-11-13T07:02:55.013Z,9.95
2017-11-13T07:05:21.575Z,10.50
2017-11-13T07:07:48.157Z,11.68
2017-11-13T07:10:15.568Z,11.82
2017-11-13T07:12:42.412Z,14.50
2017-11-13T07:15:09.890Z,15.48
2017-11-13T07:17:37.612Z,19.12
2017-11-13T07:20:05.425Z,18.95
2017-11-13T07:22:31.979Z,17.42
2017-11-13T07:24:59.256Z,18.70
2017-11-13T07:27:25.812Z,27.60
2017-11-13T07:29:52.473Z,18.27
2017-11-13T07:32:19.951Z,26.23
2017-11-13T07:34:46.512Z,22.75
2017-11-13T07:37:13.070Z,34.13
2017-11-13T07:39:40.144Z,23.52
2017-11-13T07:42:06.800Z,24.33
2017-11-13T07:44:33.548Z,22.42
2017-11-13T07:47:00.961Z,24.00
2017-11-13T07:49:28.113Z,23.42
2017-11-13T07:51:54.975Z,24.83
2017-11-13T07:54:21.535Z,24.08
2017-11-13T07:56:48.101Z,24.30
2017-11-13T07:59:14.653Z,23.45
2017-11-13T08:01:41.463Z,23.50
2017-11-13T08:04:09.202Z,24.92
2017-11-13T08:06:35.883Z,30.77
2017-11-13T08:09:02.625Z,42.88
2017-11-13T08:11:29.188Z,39.92
2017-11-13T08:13:57.376Z,37.58
2017-11-13T08:16:24.959Z,28.77
2017-11-13T08:18:51.832Z,22.58
2017-11-13T08:21:18.484Z,18.70
2017-11-13T08:23:45.113Z,19.67
2017-11-13T08:26:12.522Z,17.27
2017-11-13T08:28:39.364Z,18.75
2017-11-13T08:31:07.174Z,17.33
2017-11-13T08:33:33.835Z,16.12
2017-11-13T08:36:00.597Z,17.75
2017-11-13T08:38:28.486Z,17.75
2017-11-13T08:40:55.684Z,17.42
2017-11-13T08:43:22.218Z,17.65
2017-11-13T08:45:48.780Z,17.67
2017-11-13T08:48:16.745Z,21.67
2017-11-13T08:50:44.193Z,16.67
2017-11-13T08:53:10.998Z,20.80
2017-11-13T08:55:37.494Z,17.50
2017-11-13T08:58:04.945Z,17.33
2017-11-13T09:00:33.130Z,20.40
2017-11-13T09:03:00.617Z,18.63
2017-11-13T09:05:27.167Z,13.38
2017-11-13T09:07:53.835Z,17.73
2017-11-13T09:10:20.393Z,15.52
2017-11-13T09:12:47.102Z,15.60
2017-11-13T09:15:13.688Z,11.18
2017-11-13T09:17:41.096Z,11.10
2017-11-13T09:20:07.907Z,10.60
2017-11-13T09:22:34.865Z,9.47
2017-11-13T09:25:01.305Z,11.80
2017-11-13T09:27:27.822Z,11.38
2017-11-13T09:29:54.702Z,11.90
2017-11-13T09:32:21.974Z,9.25
2017-11-13T09:34:48.535Z,7.75
2017-11-13T09:37:15.197Z,8.27
2017-11-13T09:39:41.957Z,9.47
2017-11-13T09:42:08.805Z,9.30
2017-11-13T09:44:35.556Z,9.37
2017-11-13T09:47:03.166Z,9.77
2017-11-13T09:49:29.740Z,9.85
2017-11-13T09:51:56.384Z,16.45
2017-11-13T09:54:23.765Z,18.73
2017-11-13T09:56:52.414Z,13.32
2017-11-13T09:59:20.662Z,16.12
2017-11-13T10:01:47.206Z,18.87
2017-11-13T10:04:14.701Z,14.87
2017-11-13T10:06:41.873Z,19.75
2017-11-13T10:09:08.537Z,15.77
2017-11-13T10:11:35.197Z,15.63
2017-11-13T10:14:01.825Z,15.70
2017-11-13T10:16:29.200Z,23.15
2017-11-13T10:18:55.911Z,20.48
2017-11-13T10:21:22.450Z,23.03
2017-11-13T10:23:49.213Z,20.50
2017-11-13T10:26:16.599Z,20.52
2017-11-13T10:28:43.251Z,35.33
2017-11-13T10:31:09.858Z,28.27
2017-11-13T10:33:37.100Z,32.90
2017-11-13T10:36:03.644Z,38.28
2017-11-13T10:38:30.216Z,46.00
2017-11-13T10:40:56.740Z,41.45
2017-11-13T10:43:24.020Z,36.80
2017-11-13T10:45:52.224Z,41.58
2017-11-13T10:48:19.647Z,49.67
2017-11-13T10:50:47.068Z,32.55
2017-11-13T10:56:11.316Z,32.72
2017-11-13T10:58:37.876Z,36.25
2017-11-13T11:01:04.509Z,26.70
2017-11-13T11:03:31.088Z,33.63
2017-11-13T11:05:57.729Z,43.97
2017-11-13T11:08:24.244Z,48.70
2017-11-13T11:10:50.948Z,31.77
2017-11-13T11:13:35.403Z,21.95
2017-11-13T11:16:05.749Z,23.38
2017-11-13T11:18:33.864Z,21.70
2017-11-13T11:21:15.331Z,21.42
2017-11-13T11:23:43.932Z,29.75
2017-11-13T11:26:24.406Z,28.60
2017-11-13T11:28:56.999Z,28.50
2017-11-13T11:31:34.409Z,33.95
2017-11-13T11:34:02.076Z,39.80
2017-11-13T11:36:30.366Z,26.30
2017-11-13T11:38:57.664Z,30.08
2017-11-13T11:41:24.212Z,24.58
2017-11-13T11:43:51.736Z,23.10
2017-11-13T11:46:18.761Z,21.98
2017-11-13T11:48:48.085Z,21.10
2017-11-13T11:51:14.736Z,17.83
2017-11-13T11:53:42.718Z,20.75
2017-11-13T11:56:10.923Z,24.65
2017-11-13T11:58:37.492Z,20.57
2017-11-13T12:01:04.244Z,21.05
2017-11-13T12:03:30.809Z,21.12
2017-11-13T12:05:57.463Z,20.45
2017-11-13T12:08:25.011Z,20.40
2017-11-13T12:10:52.245Z,22.50
2017-11-13T12:13:18.787Z,22.15
2017-11-13T12:15:45.432Z,20.62
2017-11-13T12:18:12.812Z,24.63
2017-11-13T12:20:39.359Z,20.65
2017-11-13T12:23:06.555Z,20.10
2017-11-13T12:25:33.099Z,20.73
2017-11-13T12:27:59.658Z,21.07
2017-11-13T12:30:26.216Z,19.45
2017-11-13T12:32:52.774Z,20.55
2017-11-13T12:35:19.240Z,18.77
2017-11-13T12:37:45.720Z,20.58
2017-11-13T12:40:12.282Z,20.67
2017-11-13T12:42:38.791Z,20.70
2017-11-13T12:45:05.364Z,20.70
2017-11-13T12:47:32.024Z,22.52
2017-11-13T12:49:58.684Z,21.08
2017-11-13T12:52:25.250Z,20.90
2017-11-13T12:54:51.800Z,20.20
2017-11-13T12:57:18.462Z,20.83
2017-11-13T12:59:45.126Z,20.58
2017-11-13T13:02:11.736Z,18.97
2017-11-13T13:04:38.292Z,17.87
2017-11-13T13:07:05.009Z,19.83
2017-11-13T13:09:31.468Z,18.90
2017-11-13T13:11:58.222Z,18.12
2017-11-13T13:14:24.883Z,20.73
2017-11-13T13:16:51.433Z,16.62
2017-11-13T13:19:18.649Z,18.77
2017-11-13T13:21:45.171Z,23.12
2017-11-13T13:24:12.321Z,20.17
2017-11-13T13:26:38.812Z,16.67
2017-11-13T13:29:05.360Z,15.07
2017-11-13T13:31:31.849Z,19.47
2017-11-13T13:33:58.320Z,16.42
2017-11-13T13:36:24.931Z,17.17
2017-11-13T13:38:51.939Z,19.20
2017-11-13T13:41:19.276Z,17.80
2017-11-13T13:43:45.940Z,16.15
2017-11-13T13:46:12.392Z,18.77
2017-11-13T13:48:39.055Z,19.20
2017-11-13T13:51:05.711Z,22.55
2017-11-13T13:53:32.479Z,21.60
2017-11-13T13:55:58.993Z,20.70
2017-11-13T13:58:25.571Z,23.33
2017-11-13T14:00:53.494Z,18.87
2017-11-13T14:03:20.144Z,20.23
2017-11-13T14:05:47.417Z,21.77
2017-11-13T14:08:13.979Z,20.15
2017-11-13T14:10:40.637Z,20.50
2017-11-13T14:13:07.301Z,20.77
2017-11-13T14:15:33.957Z,17.33
2017-11-13T14:18:01.710Z,22.80
2017-11-13T14:20:28.813Z,24.98
2017-11-13T14:22:55.329Z,19.67
2017-11-13T14:25:21.828Z,19.90
2017-11-13T14:27:48.276Z,19.00
2017-11-13T14:30:15.556Z,18.95
2017-11-13T14:32:42.069Z,17.33
2017-11-13T14:35:08.776Z,19.48
2017-11-13T14:37:35.334Z,21.40
2017-11-13T14:40:01.852Z,26.48
2017-11-13T14:42:28.657Z,20.92
2017-11-13T14:44:55.214Z,18.60
2017-11-13T14:47:21.879Z,19.70
2017-11-13T14:49:48.428Z,19.73
2017-11-13T14:52:14.910Z,19.05
2017-11-13T14:54:41.362Z,16.33
2017-11-13T14:57:07.831Z,18.80
2017-11-13T14:59:34.370Z,19.35
2017-11-13T15:02:00.936Z,21.23
2017-11-13T15:04:27.694Z,20.77
2017-11-13T15:06:54.240Z,19.55
2017-11-13T15:09:21.516Z,19.00
2017-11-13T15:11:48.314Z,14.98
2017-11-13T15:14:14.903Z,15.05
2017-11-13T15:16:41.499Z,19.90
2017-11-13T15:19:08.055Z,16.30
2017-11-13T15:21:34.621Z,21.12
2017-11-13T15:24:01.172Z,28.60
2017-11-13T15:26:27.652Z,58.92
2017-11-13T15:28:54.177Z,18.60
2017-11-13T15:31:21.561Z,19.08
2017-11-13T15:33:48.206Z,16.50
2017-11-13T15:36:14.784Z,13.55
2017-11-13T15:38:41.256Z,15.85
2017-11-13T15:41:07.799Z,15.50
2017-11-13T15:43:34.356Z,13.38
2017-11-13T15:46:00.916Z,14.77
2017-11-13T15:48:27.425Z,15.82
2017-11-13T15:50:54.038Z,13.75
2017-11-13T15:53:20.588Z,16.42
2017-11-13T15:55:47.107Z,13.10
2017-11-13T15:58:14.612Z,16.10
2017-11-13T16:00:41.902Z,15.45
2017-11-13T16:03:08.464Z,15.25
2017-11-13T16:07:30.508Z,14.40
2017-11-13T16:09:57.028Z,15.32
2017-11-13T16:12:24.631Z,14.20
2017-11-13T16:14:51.261Z,14.93
2017-11-13T16:17:18.050Z,15.95
2017-11-13T16:19:44.711Z,16.13
2017-11-13T16:22:11.264Z,15.93
2017-11-13T16:24:37.929Z,19.77
2017-11-13T16:27:04.693Z,17.48
2017-11-13T16:29:31.875Z,18.37
2017-11-13T16:31:58.523Z,16.77
2017-11-13T16:34:25.493Z,16.25
2017-11-13T16:36:52.154Z,18.05
2017-11-13T16:39:18.703Z,21.25
2017-11-13T16:41:46.088Z,20.30
2017-11-13T16:44:12.755Z,17.48
2017-11-13T16:46:39.511Z,20.73
2017-11-13T16:49:06.071Z,18.87
2017-11-13T16:51:34.169Z,18.62
2017-11-13T16:54:00.630Z,22.45
2017-11-13T16:56:27.106Z,84.25
2017-11-13T16:58:53.733Z,32.30
2017-11-13T17:01:20.395Z,22.30
2017-11-13T17:03:47.262Z,23.30
2017-11-13T17:06:13.818Z,21.08
2017-11-13T17:08:40.381Z,23.90
2017-11-13T17:11:07.138Z,23.83
2017-11-13T17:13:33.701Z,22.65
2017-11-13T17:16:00.177Z,21.20
2017-11-13T17:18:26.741Z,19.85
2017-11-13T17:20:53.379Z,20.30
2017-11-13T17:23:20.035Z,19.45
2017-11-13T17:25:46.794Z,18.23
2017-11-13T17:28:13.468Z,19.02
2017-11-13T17:30:40.120Z,18.12
2017-11-13T17:33:07.804Z,20.00
2017-11-13T17:35:34.676Z,19.23
2017-11-13T17:38:01.242Z,18.93
2017-11-13T17:40:27.822Z,18.27
2017-11-13T17:42:54.551Z,20.80
2017-11-13T17:45:21.206Z,20.00
2017-11-13T17:47:47.850Z,19.75
2017-11-13T17:50:15.241Z,17.75
2017-11-13T17:52:42.619Z,17.87
2017-11-13T17:55:09.282Z,19.42
2017-11-13T17:57:36.352Z,20.80
2017-11-13T18:00:02.974Z,16.65
2017-11-13T18:02:29.571Z,16.77
2017-11-13T18:04:56.223Z,15.07
2017-11-13T18:07:23.507Z,15.52
2017-11-13T18:09:50.663Z,17.52
2017-11-13T18:12:17.180Z,16.42
2017-11-13T18:14:44.410Z,16.80
2017-11-13T18:17:11.101Z,18.10
2017-11-13T18:19:37.728Z,16.90
2017-11-13T18:22:07.963Z,18.50
2017-11-13T18:24:36.711Z,19.83
2017-11-13T18:27:03.317Z,20.50
2017-11-13T18:29:30.647Z,17.98
2017-11-13T18:31:57.238Z,17.90
2017-11-13T18:34:24.837Z,17.77
2017-11-13T18:36:52.182Z,20.58
2017-11-13T18:39:20.631Z,18.45
2017-11-13T18:41:51.833Z,16.80
2017-11-13T18:44:20.916Z,20.75
2017-11-13T18:46:49.277Z,20.25
2017-11-13T18:49:18.754Z,17.48
2017-11-13T18:51:47.171Z,16.33
2017-11-13T18:54:13.914Z,17.60
2017-11-13T18:56:42.258Z,16.52
2017-11-13T18:59:08.952Z,17.75
2017-11-13T19:01:35.711Z,23.83
2017-11-13T19:04:03.906Z,17.90
2017-11-13T19:06:30.566Z,17.87
2017-11-13T19:08:58.253Z,26.05
2017-11-13T19:11:24.892Z,25.12
2017-11-13T19:13:52.129Z,19.95
2017-11-13T19:16:18.949Z,20.00
2017-11-13T19:18:46.942Z,19.42
2017-11-13T19:21:13.907Z,20.37
2017-11-13T19:23:41.487Z,21.57
2017-11-13T19:26:08.049Z,19.83
2017-11-13T19:28:34.568Z,20.88
2017-11-13T19:31:01.068Z,19.58
2017-11-13T19:33:28.028Z,21.30
2017-11-13T19:35:54.755Z,18.60
2017-11-13T19:38:21.331Z,18.70
2017-11-13T19:40:49.033Z,21.25
2017-11-13T19:43:16.966Z,19.60
2017-11-13T19:45:44.091Z,19.65
2017-11-13T19:48:11.574Z,18.63
2017-11-13T19:50:38.237Z,21.48
2017-11-13T19:53:05.199Z,22.00
2017-11-13T19:55:31.972Z,29.70
2017-11-13T19:57:58.932Z,21.33
2017-11-13T20:00:25.701Z,18.67
2017-11-13T20:02:53.255Z,21.67
2017-11-13T20:05:21.222Z,18.00
2017-11-13T20:07:49.459Z,17.95
2017-11-13T20:10:16.741Z,18.95
2017-11-13T20:12:43.450Z,20.08
2017-11-13T20:15:10.034Z,21.42
2017-11-13T20:17:37.031Z,19.83
2017-11-13T20:20:03.682Z,20.67
2017-11-13T20:22:30.965Z,21.80
2017-11-13T20:24:57.617Z,20.60
2017-11-13T20:27:24.278Z,18.60
2017-11-13T20:29:50.837Z,22.00
2017-11-13T20:32:18.463Z,19.70
2017-11-13T20:34:45.088Z,22.30
2017-11-13T20:37:12.353Z,18.35
2017-11-13T20:39:38.980Z,22.02
2017-11-13T20:42:06.289Z,26.95
2017-11-13T20:44:33.371Z,23.30
2017-11-13T20:46:59.916Z,21.42
2017-11-13T20:49:27.188Z,19.33
2017-11-13T20:51:54.567Z,22.00
2017-11-13T20:54:21.125Z,18.60
2017-11-13T20:56:47.580Z,19.77
2017-11-13T20:59:14.140Z,19.70
2017-11-13T21:01:41.461Z,19.80
2017-11-13T21:04:08.178Z,19.80
2017-11-13T21:06:34.737Z,18.20
2017-11-13T21:09:01.204Z,19.17
2017-11-13T21:11:28.279Z,20.00
2017-11-13T21:13:54.819Z,18.27
2017-11-13T21:16:22.096Z,17.77
2017-11-13T21:18:49.302Z,20.37
2017-11-13T21:21:16.377Z,18.70
2017-11-13T21:23:42.903Z,18.10
2017-11-13T21:26:09.557Z,19.80
2017-11-13T21:28:36.225Z,18.77
2017-11-13T21:31:02.776Z,19.08
2017-11-13T21:33:29.247Z,21.23
2017-11-13T21:35:55.695Z,18.37
2017-11-13T21:38:22.247Z,18.35
2017-11-13T21:40:48.805Z,18.50
2017-11-13T21:43:15.298Z,22.05
2017-11-13T21:45:41.753Z,20.90
2017-11-13T21:48:08.276Z,19.40
2017-11-13T21:50:34.836Z,23.27
2017-11-13T21:53:01.395Z,17.48
2017-11-13T21:55:27.864Z,21.35
2017-11-13T21:57:54.304Z,21.17
2017-11-13T22:00:22.275Z,22.00
2017-11-13T22:02:49.571Z,19.50
2017-11-13T22:05:16.063Z,21.70
2017-11-13T22:07:42.555Z,20.05
2017-11-13T22:10:09.731Z,21.25
2017-11-13T22:12:36.953Z,22.13
2017-11-13T22:15:03.533Z,20.55
2017-11-13T22:17:30.023Z,20.52
2017-11-13T22:19:57.265Z,19.50
2017-11-13T22:22:23.742Z,21.27
2017-11-13T22:24:51.765Z,19.77
2017-11-13T22:27:18.945Z,19.08
2017-11-13T22:29:45.497Z,19.20
2017-11-13T22:32:11.934Z,20.35
2017-11-13T22:34:39.173Z,19.08
2017-11-13T22:37:05.683Z,21.08
2017-11-13T22:39:32.241Z,21.37
2017-11-13T22:41:59.464Z,20.23
2017-11-13T22:44:25.974Z,22.92
2017-11-13T22:46:52.531Z,22.48
2017-11-13T22:49:19.011Z,20.25
2017-11-13T22:51:45.446Z,20.35
2017-11-13T22:54:12.000Z,19.83
2017-11-13T22:56:38.454Z,19.15
2017-11-13T22:59:04.900Z,20.83
2017-11-13T23:01:32.065Z,20.48
2017-11-13T23:03:59.367Z,18.55
2017-11-13T23:06:25.919Z,19.40
2017-11-13T23:08:52.477Z,21.30
2017-11-13T23:11:19.750Z,19.83
2017-11-13T23:13:46.238Z,19.53
2017-11-13T23:16:12.766Z,18.67
2017-11-13T23:18:39.222Z,19.40
2017-11-13T23:21:06.497Z,18.80
2017-11-13T23:23:33.064Z,18.50
2017-11-13T23:25:59.529Z,18.20
2017-11-13T23:28:26.093Z,19.23
2017-11-13T23:30:52.630Z,18.92
2017-11-13T23:33:19.067Z,18.20
2017-11-13T23:35:45.487Z,17.52
2017-11-13T23:38:11.996Z,16.92
2017-11-13T23:40:38.559Z,19.65
2017-11-13T23:43:05.005Z,18.83
2017-11-13T23:45:32.193Z,17.98
2017-11-13T23:47:59.606Z,19.75
2017-11-13T23:50:26.218Z,17.73
2017-11-13T23:52:53.424Z,17.85
2017-11-13T23:55:20.057Z,18.05
2017-11-13T23:57:46.611Z,18.85
